• Join FlightAware (Why Join?)
  • Login
  • US Flag 
02:43AM EDT


 

Airport Tracker/Info


-or-


 

Live Flight TrackerFlight Track Log ✈ RPA3143 ✈ 26-Apr-2012 ✈ KDCA - KMCO

Flight Track Log - Related Links

Times and Time Zones

All times are in EDT time to prevent confusion due to time zone crossing. See the RPA3143 flight status page for this flight to view local times or setup timezone preferences in your user account.

Time Position Orientation Groundspeed Altitude Reporting Facility
EDT Latitude Longitude Course Direction KTS MPH feet Rate Location/Type
07:53AM 38.8340 -77.0147 203° Southwest  Level FlightAware Approximate
07:54AM 38.7326 -77.0311 359° North  Level FlightAware Approximate
07:55AM 38.8000 -77.0333 153° Southeast 161 185 2,100  Level Potomac TRACON
07:56AM 38.7500 -77.0000 132° Southeast 252 290 4,100 1,140 Climbing Potomac TRACON
07:58AM 38.6297 -76.8300 130° Southeast 263 303 6,000 1,140 Climbing Washington Center
07:59AM 38.5783 -76.7522 159° South 268 308 8,000 2,160 Climbing Washington Center
08:00AM 38.5058 -76.7167 175° South 265 305 10,400 2,100 Climbing Washington Center
08:01AM 38.4161 -76.7072 174° South 279 321 12,300 2,100 Climbing Washington Center
08:02AM 38.3244 -76.6953 173° South 314 361 14,600 2,520 Climbing Washington Center
08:03AM 38.2267 -76.6806 174° South 350 403 17,300 2,400 Climbing Washington Center
08:04AM 38.1331 -76.6689 173° South 350 403 19,500 1,980 Climbing Washington Center
08:05AM 38.0372 -76.6542 178° South 350 403 21,400 1,800 Climbing Washington Center
08:06AM 37.9350 -76.6503 185° South 356 410 23,100 1,680 Climbing Washington Center
08:07AM 37.8369 -76.6619 186° South 361 415 24,800 1,500 Climbing Washington Center
08:08AM 37.7325 -76.6764 185° South 366 421 26,200 1,260 Climbing Washington Center
08:09AM 37.6258 -76.6878 186° South 379 436 27,400 900 Climbing Washington Center
08:10AM 37.5131 -76.7019 191° South 395 455 28,100 840 Climbing Washington Center
08:11AM 37.4025 -76.7292 198° South 406 467 29,200 1,020 Climbing Washington Center
08:12AM 37.2936 -76.7744 198° South 411 473 30,200 960 Climbing Washington Center
08:13AM 37.1825 -76.8197 200° South 417 480 31,100 900 Climbing Washington Center
08:14AM 37.0756 -76.8675 198° South 422 486 32,000 420 Climbing Washington Center
08:15AM 36.9644 -76.9125 198° South 422 486 32,000  Level Washington Center
08:16AM 36.8533 -76.9572 199° South 429 494 32,000  Level Washington Center
08:17AM 36.7422 -77.0044 199° South 429 494 32,000  Level Washington Center
08:18AM 36.6333 -77.0517 197° South 424 488 32,000  Level Washington Center
08:19AM 36.5200 -77.0961 198° South 424 488 32,000 240 Level Washington Center
08:20AM 36.4131 -77.1406 198° South 418 481 32,500 540 Climbing Washington Center
08:21AM 36.3042 -77.1847 199° South 418 481 33,200 840 Climbing Washington Center
08:22AM 36.1928 -77.2314 199° South 418 481 34,200 960 Climbing Washington Center
08:23AM 36.1025 -77.2708 197° South 404 465 35,100 780 Climbing Washington Center
08:24AM 35.9936 -77.3119 198° South 404 465 35,800 420 Climbing Washington Center
08:25AM 35.8886 -77.3533 199° South 404 465 36,000 60 Climbing Washington Center
08:26AM 35.7836 -77.3972 196° South 404 465 36,000  Level Washington Center
08:27AM 35.6767 -77.4356 210° Southwest 404 465 36,000  Level Washington Center
08:28AM 35.5711 -77.5097 220° Southwest 404 465 36,000  Level Washington Center
08:29AM 35.4861 -77.5969 219° Southwest 399 459 36,000  Level Washington Center
08:30AM 35.4014 -77.6817 218° Southwest 404 465 36,000  Level Washington Center
08:31AM 35.3100 -77.7683 218° Southwest 404 465 36,000  Level Washington Center
08:32AM 35.2250 -77.8497 219° Southwest 404 465 36,000  Level Washington Center
08:33AM 35.1400 -77.9339 217° Southwest 399 459 36,000  Level Washington Center
08:34AM 35.0528 -78.0150 218° Southwest 404 465 36,000  Level Washington Center
08:35AM 34.9742 -78.0911 218° Southwest 404 465 36,000  Level Washington Center
08:36AM 34.8867 -78.1747 221° Southwest 404 465 36,000  Level Washington Center
08:37AM 34.8056 -78.2606 219° Southwest 399 459 36,000  Level Washington Center
08:38AM 34.7203 -78.3436 217° Southwest 399 459 36,000  Level Washington Center
08:39AM 34.6222 -78.4339 217° Southwest 399 459 36,000  Level Washington Center
08:40AM 34.5222 -78.5256 221° Southwest 403 464 36,000  Level Jacksonville Center
08:41AM 34.4356 -78.6156 218° Southwest 395 455 36,000  Level Jacksonville Center
08:42AM 34.3508 -78.6950 218° Southwest 390 449 36,000  Level Jacksonville Center
08:43AM 34.2636 -78.7772 218° Southwest 397 457 36,000  Level Jacksonville Center
08:44AM 34.1767 -78.8592 218° Southwest 397 457 36,000  Level Jacksonville Center
08:45AM 34.0894 -78.9408 219° Southwest 402 463 36,000  Level Jacksonville Center
08:46AM 34.0025 -79.0250 218° Southwest 402 463 36,000  Level Jacksonville Center
08:47AM 33.9153 -79.1064 218° Southwest 402 463 36,000  Level Jacksonville Center
08:48AM 33.8278 -79.1875 218° Southwest 407 468 36,000  Level Jacksonville Center
08:49AM 33.7425 -79.2686 215° Southwest 402 463 36,000  Level Jacksonville Center
08:50AM 33.6653 -79.3342 217° Southwest 397 457 36,000  Level Jacksonville Center
08:51AM 33.5778 -79.4125 218° Southwest 397 457 36,000  Level Jacksonville Center
08:52AM 33.4942 -79.4906 217° Southwest 397 457 36,000  Level Jacksonville Center
08:53AM 33.4086 -79.5683 217° Southwest 397 457 36,000  Level Jacksonville Center
08:54AM 33.3231 -79.6461 218° Southwest 397 457 36,000  Level Jacksonville Center
08:55AM 33.2414 -79.7236 217° Southwest 397 457 36,000  Level Jacksonville Center
08:56AM 33.1578 -79.7986 217° Southwest 392 451 36,000  Level Jacksonville Center
08:57AM 33.0719 -79.8758 217° Southwest 392 451 36,000  Level Jacksonville Center
08:58AM 32.9861 -79.9531 216° Southwest 392 451 36,000  Level Jacksonville Center
08:59AM 32.9003 -80.0275 214° Southwest 392 451 36,000  Level Jacksonville Center
09:00AM 32.7997 -80.1075 212° Southwest 392 451 36,000  Level Jacksonville Center
09:01AM 32.7114 -80.1742 210° Southwest 392 451 36,000  Level Jacksonville Center
09:02AM 32.6167 -80.2389 213° Southwest 392 451 36,000  Level Jacksonville Center
09:03AM 32.5283 -80.3078 211° Southwest 386 444 36,000  Level Jacksonville Center
09:04AM 32.4358 -80.3744 212° Southwest 386 444 36,000  Level Jacksonville Center
09:05AM 32.3453 -80.4408 211° Southwest 381 438 36,000  Level Jacksonville Center
09:06AM 32.2528 -80.5072 213° Southwest 387 445 36,000  Level Jacksonville Center
09:07AM 32.1600 -80.5783 212° Southwest 392 451 36,000  Level Jacksonville Center
09:08AM 32.0775 -80.6394 210° Southwest 392 451 36,000  Level Jacksonville Center
09:09AM 31.9744 -80.7106 211° Southwest 392 451 36,000  Level Jacksonville Center
09:10AM 31.8900 -80.7711 213° Southwest 397 457 36,000  Level Jacksonville Center
09:11AM 31.7889 -80.8469 209° Southwest 397 457 36,000  Level Jacksonville Center
09:12AM 31.6939 -80.9100 195° South 395 455 36,000  Level Jacksonville Center
09:13AM 31.5919 -80.9414 190° South 402 463 36,000  Level Jacksonville Center
09:14AM 31.4650 -80.9683 192° South 429 494 36,000  Level Jacksonville Center
09:15AM 31.3486 -80.9975 189° South 429 494 36,000  Level Jacksonville Center
09:16AM 31.2422 -81.0167 187° South 436 502 36,000  Level Jacksonville Center
09:17AM 31.1214 -81.0336 184° South 436 502 36,000  Level Jacksonville Center
09:18AM 30.9983 -81.0433 181° South 436 502 36,000  Level Jacksonville Center
09:19AM 30.8753 -81.0458 183° South 441 507 36,000  Level Jacksonville Center
09:20AM 30.7564 -81.0531 182° South 441 507 36,000 -300 Level Jacksonville Center
09:21AM 30.6375 -81.0575 183° South 441 507 35,500 -780 Descending Jacksonville Center
09:22AM 30.5164 -81.0647 182° South 441 507 34,500 -1,020 Descending Jacksonville Center
09:23AM 30.3956 -81.0694 182° South 441 507 33,500 -1,260 Descending Jacksonville Center
09:24AM 30.2597 -81.0744 183° South 441 507 32,000 -1,500 Descending Jacksonville Center
09:25AM 30.1367 -81.0817 182° South 441 507 30,500 -1,500 Descending Jacksonville Center
09:26AM 30.0136 -81.0864 183° South 441 507 29,000 -1,500 Descending Jacksonville Center
09:27AM 29.8928 -81.0933 182° South 441 507 27,500 -1,500 Descending Jacksonville Center
09:28AM 29.7800 -81.0978 182° South 434 499 26,000 -1,500 Descending Jacksonville Center
09:29AM 29.6694 -81.1022 182° South 413 475 24,500 -1,800 Descending Jacksonville Center
09:30AM 29.5631 -81.1067 182° South 400 460 22,400 -2,100 Descending Jacksonville Center
09:31AM 29.4608 -81.1108 180° South 384 442 20,400 -2,040 Descending Jacksonville Center
09:32AM 29.3586 -81.1103 180° South 378 435 18,400 -1,980 Descending Jacksonville Center
09:33AM 29.2561 -81.1097 176° South 373 429 16,500 -1,920 Descending Jacksonville Center
09:34AM 29.1558 -81.1022 177° South 366 421 14,600 -1,860 Descending Jacksonville Center
09:35AM 29.0619 -81.0967 174° South 361 415 12,800 -1,320 Descending Jacksonville Center
09:36AM 28.9742 -81.0864 171° South 348 400 12,000 10,560 Descending Jacksonville Center
09:37AM 28.8903 -81.0714 201° Southwest 318 366 34,000 -1,560 Climbing Jacksonville Center
09:38AM 28.8219 -81.1011 225° Southwest 274 315 8,900 -13,440 Descending Jacksonville Center
09:39AM 28.7664 -81.1636 227° Southwest 268 308 7,200 -1,380 Descending Jacksonville Center
09:40AM 28.7172 -81.2236 213° Southwest 274 315 6,200 -1,140 Descending Jacksonville Center
09:41AM 28.6656 -81.2625 202° Southwest 254 292 5,000 -1,320 Descending Jacksonville Center
09:43AM 28.5833 -81.3000 202° Southwest 223 257 3,200 -1,380 Descending Orlando TRACON